ホーチミン の空港の天気 - METARとTAF

タンソンニャット国際空港 (ホーチミン) ( VVTS / SGN ) - ベトナム ホーチミン市
飛行場実況気象(Metar)
観測時間08/18 09:30 ICT (08/18 02:30 UTC)
風向・風速西 4m/s
視程10km以上
天気現象弱い雨
全天の4割程度の雲 雲底高度 460m
全天の8割程度の雲 雲底高度 1520m
気温27℃
湿度79%
気圧1008hPa
METARVVTS 180230Z 28007KT 9999 -RA SCT015 BKN050 27/23 Q1008 NOSIG
過去の天気等 Google飛行場航空写真 Wunderground天気予報

過去48時間のMETAR

飛行場予報(TAF)
発表時間: 8/18 06:00 ICT (8/17 23:00 UTC)
予報対象時間: 18日7時 ICT ~ 19日13時 ICT
風向・風速南西 3m/s
視程10km以上
全天の4割程度の雲 雲底高度 460m
全天の4割程度の雲 雲底高度 1,220m
18日8時 ICT ~ 18日13時 ICT に一時的に
視程5,000m
天気現象
全天の8割程度の雲 雲底高度 400m
全天の8割程度の雲 雲底高度 1,220m
18日13時 ICT ~ 18日17時 ICT に一時的に
風向・風速西 8m/s 瞬間風速 15m/s
視程2,000m
天気現象強いしゅう雨
全天の8割程度の雲 雲底高度 400m
全天の4割程度の積乱雲 雲底高度 460m
TAF VVTS 172300Z 1800/1906 22005KT 9999 SCT015 SCT040
TEMPO 1801/1806 5000 RA BKN013 BKN040
TEMPO 1806/1810 28015G30KT 2000 +SHRA BKN013 SCT015CB